Time;durP1;ratioP1;P1;durP2;ratioP2;P2;SDS_P1;SDS_P2;PMS_P1;PMS_P2;Temp;Humidity;BMP_temperature;BMP_pressure;BME280_temperature;BME280_humidity;BME280_pressure;Samples;Min_cycle;Max_cycle;Signal;HPM_P1;HPM_P2
2023/04/30 00:01:31;;;;;;;16.55;12.15;;;;;;;7.49;100.00;-18229.59;5021321;28;20106;-81
2023/04/30 00:03:57;;;;;;;15.52;11.27;;;;;;;7.41;100.00;-18227.66;5035779;28;20046;-81
2023/04/30 00:06:22;;;;;;;16.38;11.48;;;;;;;7.55;100.00;-18231.38;5019433;28;20061;-81
2023/04/30 00:08:47;;;;;;;15.55;11.82;;;;;;;7.42;100.00;-18227.94;5019420;28;20049;-81
2023/04/30 00:11:13;;;;;;;18.00;12.68;;;;;;;7.40;100.00;-18227.38;5033005;28;20045;-81
2023/04/30 00:13:38;;;;;;;14.30;11.43;;;;;;;7.38;100.00;-18226.84;5012075;28;20046;-81
2023/04/30 00:16:04;;;;;;;16.50;11.65;;;;;;;7.43;100.00;-18228.06;5017110;28;20042;-81
2023/04/30 00:18:29;;;;;;;15.05;11.45;;;;;;;7.44;100.00;-18228.50;5018746;28;20034;-81
2023/04/30 00:20:55;;;;;;;16.00;12.07;;;;;;;7.23;100.00;-18222.69;5020213;28;20045;-81
2023/04/30 00:23:20;;;;;;;15.57;11.55;;;;;;;7.33;100.00;-18225.47;5020796;28;20037;-81
2023/04/30 00:25:45;;;;;;;15.88;12.00;;;;;;;7.14;100.00;-18220.38;5032697;28;20034;-81
2023/04/30 00:28:11;;;;;;;15.95;11.75;;;;;;;7.09;100.00;-18218.97;5021065;28;20041;-81
2023/04/30 00:30:36;;;;;;;16.98;12.35;;;;;;;6.99;100.00;-18216.22;5016972;28;20069;-81
2023/04/30 00:33:01;;;;;;;17.15;12.43;;;;;;;7.00;100.00;-18216.50;5020993;28;20077;-81
2023/04/30 00:35:27;;;;;;;18.38;12.52;;;;;;;6.99;100.00;-18216.38;5019295;28;20046;-81
2023/04/30 00:37:52;;;;;;;16.95;13.30;;;;;;;6.85;100.00;-18212.50;5018132;28;20045;-81
2023/04/30 00:40:18;;;;;;;19.30;13.38;;;;;;;6.90;100.00;-18213.88;5019377;28;20046;-81
2023/04/30 00:42:44;;;;;;;17.55;13.57;;;;;;;6.69;100.00;-18208.09;5034932;28;20041;-81
2023/04/30 00:45:10;;;;;;;17.13;13.23;;;;;;;6.68;100.00;-18207.81;5023395;28;20041;-81
2023/04/30 00:47:36;;;;;;;19.67;13.90;;;;;;;6.63;100.00;-18206.44;5019304;28;20042;-80
2023/04/30 00:50:02;;;;;;;17.83;13.10;;;;;;;6.62;100.00;-18206.31;5034042;28;20056;-81
2023/04/30 00:52:27;;;;;;;17.92;14.00;;;;;;;6.59;100.00;-18205.34;5020195;28;20654;-81
2023/04/30 00:54:53;;;;;;;20.27;14.57;;;;;;;6.38;100.00;-18199.69;5020123;28;20046;-81
2023/04/30 00:57:19;;;;;;;18.98;14.68;;;;;;;6.52;100.00;-18203.69;5009182;28;20042;-81
2023/04/30 00:59:45;;;;;;;20.52;15.15;;;;;;;6.58;100.00;-18205.06;5023934;28;20788;-81
2023/04/30 01:02:12;;;;;;;20.05;13.73;;;;;;;6.43;100.00;-18201.06;5011765;28;20120;-82
2023/04/30 01:04:38;;;;;;;18.15;13.18;;;;;;;6.37;100.00;-18199.41;5010061;28;20034;-81
2023/04/30 01:07:04;;;;;;;22.00;14.77;;;;;;;6.43;100.00;-18201.06;5010869;28;20048;-81
2023/04/30 01:09:30;;;;;;;19.08;14.25;;;;;;;6.95;100.00;-18215.13;5006428;28;20098;-81
2023/04/30 01:11:56;;;;;;;19.60;15.15;;;;;;;6.32;100.00;-18198.16;5022962;28;20492;-81
2023/04/30 01:14:32;;;;;;;20.30;15.05;;;;;;;6.25;100.00;-18196.25;5013568;28;20042;-81
2023/04/30 01:17:32;;;;;;;20.77;14.68;;;;;;;6.26;100.00;-18196.50;5004392;28;20089;-81
2023/04/30 01:19:59;;;;;;;21.38;15.13;;;;;;;6.33;100.00;-18198.59;4984122;28;20525;-81
2023/04/30 01:22:24;;;;;;;22.15;16.20;;;;;;;6.47;100.00;-18202.31;5002989;28;20057;-81
2023/04/30 01:25:24;;;;;;;21.77;15.80;;;;;;;6.25;100.00;-18196.38;5008850;28;20060;-81
2023/04/30 01:28:08;;;;;;;21.75;15.35;;;;;;;6.04;100.00;-18190.72;4988903;28;20043;-81
2023/04/30 01:30:35;;;;;;;19.45;14.82;;;;;;;6.12;100.00;-18192.66;5007239;28;20049;-81
2023/04/30 01:33:00;;;;;;;18.10;13.50;;;;;;;6.26;100.00;-18196.50;5000652;28;20076;-81
2023/04/30 01:35:49;;;;;;;19.45;14.35;;;;;;;6.27;100.00;-18196.78;5008058;28;20057;-81
2023/04/30 01:38:37;;;;;;;22.17;15.65;;;;;;;6.04;100.00;-18190.72;4972784;28;20468;-81
2023/04/30 01:41:20;;;;;;;20.60;15.05;;;;;;;5.86;100.00;-18185.88;5010144;28;20045;-81
2023/04/30 01:44:00;;;;;;;20.55;15.48;;;;;;;5.83;100.00;-18185.06;4991120;28;20069;-80
2023/04/30 01:46:30;;;;;;;21.52;15.88;;;;;;;5.93;100.00;-18187.53;5007826;28;20100;-81
2023/04/30 01:49:13;;;;;;;21.98;15.85;;;;;;;5.85;100.00;-18185.47;5010523;28;20045;-81
2023/04/30 01:51:41;;;;;;;22.15;15.65;;;;;;;5.84;100.00;-18185.19;5010243;28;20033;-81
2023/04/30 01:54:37;;;;;;;20.58;14.93;;;;;;;5.97;100.00;-18188.66;5012667;28;20037;-81
2023/04/30 01:57:05;;;;;;;20.38;16.08;;;;;;;5.94;100.00;-18187.81;4997633;28;20042;-81
2023/04/30 01:59:33;;;;;;;20.37;15.70;;;;;;;5.93;100.00;-18187.53;5011106;28;20038;-81
2023/04/30 02:01:59;;;;;;;19.67;14.98;;;;;;;5.84;100.00;-18185.19;5002597;28;20293;-81
2023/04/30 02:04:24;;;;;;;24.20;16.50;;;;;;;5.81;100.00;-18184.38;5009784;28;20098;-81
2023/04/30 02:06:49;;;;;;;21.00;15.55;;;;;;;5.83;100.00;-18184.91;5007532;28;20525;-81
2023/04/30 02:09:15;;;;;;;21.48;15.93;;;;;;;5.51;100.00;-18176.22;5008962;28;20449;-81
2023/04/30 02:11:40;;;;;;;25.05;17.10;;;;;;;5.55;100.00;-18177.47;5000069;28;20448;-80
2023/04/30 02:14:06;;;;;;;22.00;16.50;;;;;;;5.53;100.00;-18176.91;5012586;28;20428;-81
2023/04/30 02:16:31;;;;;;;23.88;16.00;;;;;;;5.57;100.00;-18178.03;5013388;28;20042;-81
2023/04/30 02:18:56;;;;;;;23.92;16.42;;;;;;;5.61;100.00;-18179.00;5002056;28;20030;-81
2023/04/30 02:21:22;;;;;;;24.13;15.80;;;;;;;5.61;100.00;-18179.13;5014947;28;20045;-80
2023/04/30 02:23:48;;;;;;;20.67;15.43;;;;;;;5.57;100.00;-18178.03;5014291;28;20511;-80
2023/04/30 02:26:13;;;;;;;25.25;17.48;;;;;;;5.50;100.00;-18175.97;4992584;28;20047;-80
2023/04/30 02:28:39;;;;;;;21.75;16.35;;;;;;;5.45;100.00;-18174.56;4971851;28;20072;-80
2023/04/30 02:31:04;;;;;;;22.45;15.50;;;;;;;5.29;100.00;-18170.28;4973854;28;20046;-80
2023/04/30 02:33:30;;;;;;;19.73;14.93;;;;;;;5.30;100.00;-18170.72;4973492;28;20115;-80
2023/04/30 02:35:55;;;;;;;21.30;15.77;;;;;;;5.33;100.00;-18171.53;4974498;28;20126;-80
2023/04/30 02:38:21;;;;;;;23.13;15.55;;;;;;;5.62;100.00;-18179.25;4966330;28;20737;-79
2023/04/30 02:40:46;;;;;;;21.77;16.63;;;;;;;5.41;100.00;-18173.63;4966184;28;20137;-79
2023/04/30 02:43:11;;;;;;;22.05;16.52;;;;;;;5.45;100.00;-18174.56;4967670;28;20526;-79
2023/04/30 02:45:37;;;;;;;20.33;14.95;;;;;;;5.39;100.00;-18173.06;4969170;28;20039;-79
2023/04/30 02:48:02;;;;;;;21.30;15.73;;;;;;;5.50;100.00;-18175.97;4968510;28;20057;-80
2023/04/30 02:50:27;;;;;;;20.35;15.52;;;;;;;5.38;100.00;-18172.91;4968976;28;20046;-79
2023/04/30 02:52:54;;;;;;;20.95;15.68;;;;;;;5.30;100.00;-18170.56;4967850;28;20043;-79
2023/04/30 02:55:20;;;;;;;20.00;15.40;;;;;;;5.54;100.00;-18177.19;4969862;28;20047;-79
2023/04/30 02:57:45;;;;;;;26.30;15.52;;;;;;;5.45;100.00;-18174.72;4979182;28;20405;-80
2023/04/30 03:00:11;;;;;;;22.83;15.98;;;;;;;5.25;100.00;-18169.34;5011008;28;20042;-80
2023/04/30 03:02:37;;;;;;;22.55;16.33;;;;;;;5.27;100.00;-18169.75;5011569;28;20497;-80
2023/04/30 03:05:03;;;;;;;23.45;15.93;;;;;;;5.29;100.00;-18170.28;5016236;28;20042;-80
2023/04/30 03:07:28;;;;;;;22.55;16.02;;;;;;;5.31;100.00;-18170.84;5010359;28;20113;-79
2023/04/30 03:09:53;;;;;;;20.90;16.27;;;;;;;5.38;100.00;-18172.91;5010075;28;20044;-80
2023/04/30 03:12:18;;;;;;;21.17;15.73;;;;;;;5.07;100.00;-18164.50;5011129;28;20124;-79
2023/04/30 03:14:44;;;;;;;20.15;15.23;;;;;;;5.08;100.00;-18164.63;5002618;28;20042;-80
2023/04/30 03:17:09;;;;;;;23.25;16.15;;;;;;;5.44;100.00;-18174.44;5009746;28;20045;-79
2023/04/30 03:19:35;;;;;;;22.27;15.63;;;;;;;5.36;100.00;-18172.22;5001399;28;20559;-79
2023/04/30 03:22:00;;;;;;;23.38;16.95;;;;;;;5.08;100.00;-18164.63;5010295;28;20038;-80
2023/04/30 03:24:25;;;;;;;23.33;16.35;;;;;;;4.90;100.00;-18159.81;5011475;28;20117;-79
2023/04/30 03:26:50;;;;;;;23.08;16.90;;;;;;;4.85;100.00;-18158.56;5019327;28;20069;-80
2023/04/30 03:29:16;;;;;;;22.83;17.75;;;;;;;4.88;100.00;-18159.38;5009645;28;20045;-79
2023/04/30 03:31:41;;;;;;;21.92;16.70;;;;;;;4.66;100.00;-18153.47;5010026;28;20100;-79
2023/04/30 03:34:07;;;;;;;23.88;16.85;;;;;;;4.77;100.00;-18156.22;5010942;28;20040;-80
2023/04/30 03:36:33;;;;;;;22.77;16.20;;;;;;;4.79;100.00;-18156.91;5010985;28;20796;-80
2023/04/30 03:38:59;;;;;;;22.33;17.30;;;;;;;4.77;100.00;-18156.34;5002738;28;20045;-79
2023/04/30 03:41:24;;;;;;;25.05;17.50;;;;;;;4.56;100.00;-18150.56;5006761;28;20030;-80
2023/04/30 03:43:50;;;;;;;25.38;16.92;;;;;;;4.47;100.00;-18148.22;5000944;28;20033;-80
2023/04/30 03:46:15;;;;;;;25.05;16.65;;;;;;;4.44;100.00;-18147.38;5004192;28;20072;-80
2023/04/30 03:48:40;;;;;;;23.92;17.90;;;;;;;4.42;100.00;-18146.81;4996180;28;20577;-80
2023/04/30 03:51:06;;;;;;;24.52;17.20;;;;;;;4.44;100.00;-18147.38;5018722;28;20493;-80
2023/04/30 03:53:31;;;;;;;25.52;17.90;;;;;;;4.48;100.00;-18148.63;5001764;28;20042;-79
2023/04/30 03:55:57;;;;;;;22.38;15.93;;;;;;;4.54;100.00;-18150.13;5004514;28;21117;-79
2023/04/30 03:58:23;;;;;;;24.63;17.52;;;;;;;4.53;100.00;-18149.88;5005588;28;20073;-79
2023/04/30 04:00:48;;;;;;;26.50;18.88;;;;;;;4.60;100.00;-18151.78;5002908;28;20546;-80
2023/04/30 04:03:15;;;;;;;23.83;17.65;;;;;;;4.56;100.00;-18150.56;5006748;28;20049;-80
2023/04/30 04:05:40;;;;;;;26.23;19.05;;;;;;;4.63;100.00;-18152.50;5003685;28;20042;-80
2023/04/30 04:08:06;;;;;;;25.27;18.05;;;;;;;4.63;100.00;-18152.63;5001882;28;20038;-80
2023/04/30 04:10:33;;;;;;;26.25;18.73;;;;;;;4.61;100.00;-18152.06;5006043;28;20252;-79
2023/04/30 04:12:59;;;;;;;27.30;18.75;;;;;;;4.61;100.00;-18152.06;5006176;28;20072;-80
2023/04/30 04:15:24;;;;;;;27.10;20.30;;;;;;;4.66;100.00;-18153.31;5005993;28;20045;-80
2023/04/30 04:17:50;;;;;;;29.60;20.15;;;;;;;4.74;100.00;-18155.66;5005582;28;20046;-80
2023/04/30 04:20:16;;;;;;;29.75;19.80;;;;;;;4.77;100.00;-18156.22;5004408;28;20077;-80
2023/04/30 04:22:42;;;;;;;29.80;21.40;;;;;;;4.67;100.00;-18153.72;5003105;28;20084;-79
2023/04/30 04:25:08;;;;;;;28.63;21.85;;;;;;;4.52;100.00;-18149.59;5012037;28;20068;-79
2023/04/30 04:27:33;;;;;;;30.10;20.17;;;;;;;4.59;100.00;-18151.53;4996139;28;20049;-80
2023/04/30 04:29:59;;;;;;;32.20;22.33;;;;;;;4.66;100.00;-18153.31;4998935;28;20069;-79
2023/04/30 04:32:24;;;;;;;26.02;17.90;;;;;;;4.68;100.00;-18154.00;5005553;28;20045;-79
2023/04/30 04:34:50;;;;;;;34.17;24.05;;;;;;;4.63;100.00;-18152.63;5001327;28;20413;-79
2023/04/30 04:37:16;;;;;;;31.27;23.25;;;;;;;4.65;100.00;-18153.19;5002057;28;20097;-80
2023/04/30 04:39:41;;;;;;;30.35;21.63;;;;;;;4.65;100.00;-18153.03;5004903;28;20034;-79
2023/04/30 04:42:07;;;;;;;33.25;22.88;;;;;;;4.84;100.00;-18158.16;4999337;28;20580;-80
2023/04/30 04:44:32;;;;;;;31.45;21.65;;;;;;;4.59;100.00;-18151.53;5002458;28;20484;-79
2023/04/30 04:46:58;;;;;;;29.52;21.45;;;;;;;4.78;100.00;-18156.50;5004240;28;20053;-80
2023/04/30 04:49:23;;;;;;;36.88;25.92;;;;;;;4.61;100.00;-18152.06;5006068;28;20133;-80
2023/04/30 04:51:48;;;;;;;39.17;28.60;;;;;;;4.71;100.00;-18154.84;5006260;28;20041;-80
2023/04/30 04:54:14;;;;;;;36.00;25.88;;;;;;;4.81;100.00;-18157.47;5006244;28;20045;-80
2023/04/30 04:56:39;;;;;;;35.90;25.27;;;;;;;4.90;100.00;-18159.81;5004780;28;20038;-80
2023/04/30 04:59:05;;;;;;;36.95;25.27;;;;;;;4.93;100.00;-18160.63;5004382;28;20112;-80
2023/04/30 05:01:30;;;;;;;39.15;26.60;;;;;;;5.06;100.00;-18164.22;5010761;28;20393;-80
2023/04/30 05:03:56;;;;;;;41.88;29.15;;;;;;;5.10;100.00;-18165.31;5004973;28;20096;-79
2023/04/30 05:06:21;;;;;;;48.15;32.20;;;;;;;5.26;100.00;-18169.47;5001220;28;20390;-79
2023/04/30 05:08:46;;;;;;;42.92;29.65;;;;;;;5.36;100.00;-18172.38;4996084;28;21345;-80
2023/04/30 05:11:12;;;;;;;45.92;30.52;;;;;;;5.48;100.00;-18175.41;4996958;28;20042;-80
2023/04/30 05:13:37;;;;;;;43.75;29.75;;;;;;;5.63;100.00;-18179.53;5000501;28;20042;-81
2023/04/30 05:16:03;;;;;;;48.58;30.75;;;;;;;5.66;100.00;-18180.50;4999607;28;20071;-80
2023/04/30 05:18:28;;;;;;;45.03;32.22;;;;;;;5.78;100.00;-18183.53;5007349;28;20037;-80
2023/04/30 05:20:53;;;;;;;44.67;29.17;;;;;;;5.67;100.00;-18180.66;4999469;28;21804;-80
2023/04/30 05:23:19;;;;;;;44.35;32.15;;;;;;;5.73;100.00;-18182.16;5002982;28;20064;-81
2023/04/30 05:25:45;;;;;;;44.38;30.92;;;;;;;5.70;100.00;-18181.47;5001860;28;20065;-81
2023/04/30 05:28:10;;;;;;;44.65;31.58;;;;;;;5.64;100.00;-18179.81;5003171;28;20042;-81
2023/04/30 05:30:36;;;;;;;41.33;31.77;;;;;;;5.78;100.00;-18183.53;5001638;28;20043;-80
2023/04/30 05:33:01;;;;;;;43.05;30.38;;;;;;;5.80;100.00;-18184.22;5003649;28;20060;-80
2023/04/30 05:35:27;;;;;;;46.58;29.38;;;;;;;5.86;100.00;-18185.88;5004726;28;20045;-81
2023/04/30 05:37:52;;;;;;;47.78;31.83;;;;;;;5.96;100.00;-18188.50;5004377;28;20050;-81
2023/04/30 05:40:17;;;;;;;42.72;30.63;;;;;;;6.04;100.00;-18190.59;5003127;28;20556;-81
2023/04/30 05:42:43;;;;;;;41.20;30.20;;;;;;;6.17;100.00;-18194.16;4999537;28;20044;-81
2023/04/30 05:45:13;;;;;;;40.00;29.45;;;;;;;6.21;100.00;-18195.13;5002093;28;20088;-81
2023/04/30 05:47:39;;;;;;;38.15;29.08;;;;;;;6.30;100.00;-18197.63;5004166;28;20771;-80
2023/04/30 05:50:06;;;;;;;37.97;27.67;;;;;;;6.44;100.00;-18201.47;5000168;28;20038;-80
2023/04/30 05:52:31;;;;;;;35.60;26.25;;;;;;;6.47;100.00;-18202.16;5009675;28;20033;-81
2023/04/30 05:54:57;;;;;;;37.47;25.55;;;;;;;6.57;100.00;-18204.78;5008804;28;20056;-81
2023/04/30 05:57:22;;;;;;;35.15;23.65;;;;;;;6.70;100.00;-18208.38;5008605;28;20398;-81
2023/04/30 05:59:47;;;;;;;33.95;24.27;;;;;;;6.79;100.00;-18210.84;5005137;28;20067;-81
2023/04/30 06:02:13;;;;;;;29.02;22.67;;;;;;;6.89;100.00;-18213.59;5003874;28;20034;-81
2023/04/30 06:04:38;;;;;;;27.75;21.95;;;;;;;7.02;100.00;-18217.06;5003191;28;22038;-80
2023/04/30 06:07:03;;;;;;;30.17;20.98;;;;;;;7.15;100.00;-18220.50;5004593;28;20049;-81
2023/04/30 06:09:29;;;;;;;32.67;19.83;;;;;;;7.34;100.00;-18225.59;5006685;28;20046;-81
2023/04/30 06:11:54;;;;;;;28.55;18.30;;;;;;;7.47;100.00;-18229.19;5007035;28;20413;-80
2023/04/30 06:14:21;;;;;;;32.25;18.77;;;;;;;7.63;100.00;-18233.59;5008512;28;20113;-81
2023/04/30 06:16:47;;;;;;;23.83;17.48;;;;;;;7.65;100.00;-18234.00;5003598;28;20049;-81
2023/04/30 06:19:12;;;;;;;22.55;15.65;;;;;;;7.82;100.00;-18238.69;5008773;28;20042;-81
2023/04/30 06:21:38;;;;;;;23.02;15.73;;;;;;;7.98;100.00;-18242.94;5007620;28;20487;-82
2023/04/30 06:24:03;;;;;;;20.58;15.20;;;;;;;8.11;100.00;-18246.38;5022627;28;20045;-80
2023/04/30 06:26:29;;;;;;;20.63;13.65;;;;;;;8.25;100.00;-18250.09;5009213;28;20037;-80
2023/04/30 06:28:54;;;;;;;20.48;14.18;;;;;;;8.38;100.00;-18253.56;5001731;28;20065;-81
2023/04/30 06:31:20;;;;;;;20.80;12.48;;;;;;;8.40;100.00;-18254.09;5021525;28;20034;-80
2023/04/30 06:33:46;;;;;;;19.38;12.30;;;;;;;8.45;100.00;-18255.47;5001025;28;20042;-81
2023/04/30 06:36:12;;;;;;;17.77;11.38;;;;;;;8.55;100.00;-18258.25;5010660;28;20042;-80
2023/04/30 06:38:37;;;;;;;17.60;12.25;;;;;;;8.66;100.00;-18261.13;5009061;28;20096;-81
2023/04/30 06:41:02;;;;;;;20.25;11.52;;;;;;;8.82;100.00;-18265.66;5005169;28;20046;-81
2023/04/30 06:43:28;;;;;;;16.02;11.50;;;;;;;8.82;100.00;-18265.66;5000816;28;20042;-81
2023/04/30 06:45:53;;;;;;;19.98;11.07;;;;;;;8.89;100.00;-18267.31;5006718;28;20497;-80
2023/04/30 06:48:19;;;;;;;14.98;11.18;;;;;;;9.01;100.00;-18270.75;5000273;28;20049;-81
2023/04/30 06:50:44;;;;;;;18.13;10.30;;;;;;;9.18;100.00;-18275.16;5006813;28;20068;-81
2023/04/30 06:53:11;;;;;;;16.98;10.85;;;;;;;9.21;100.00;-18276.00;5005002;28;20513;-81
2023/04/30 06:55:36;;;;;;;15.15;10.98;;;;;;;9.29;100.00;-18278.19;5004610;28;20045;-81
2023/04/30 06:58:01;;;;;;;17.90;11.05;;;;;;;9.39;100.00;-18280.94;5022518;28;20098;-82
2023/04/30 07:00:27;;;;;;;14.20;9.85;;;;;;;9.45;100.00;-18282.59;5005095;28;20049;-81
2023/04/30 07:02:52;;;;;;;16.92;11.50;;;;;;;9.66;100.00;-18288.22;5008952;28;20061;-81
2023/04/30 07:05:18;;;;;;;13.57;9.88;;;;;;;9.71;100.00;-18289.47;5012915;28;20038;-81
2023/04/30 07:07:43;;;;;;;16.58;9.68;;;;;;;9.80;100.00;-18291.81;5019320;28;20046;-81
2023/04/30 07:10:09;;;;;;;14.57;9.65;;;;;;;9.79;100.00;-18291.53;5009389;28;20233;-81
2023/04/30 07:12:34;;;;;;;14.85;10.35;;;;;;;9.81;100.00;-18292.06;5010115;28;20713;-81
2023/04/30 07:15:03;;;;;;;14.00;9.95;;;;;;;10.02;100.00;-18297.72;5013841;28;20057;-81
2023/04/30 07:17:28;;;;;;;14.23;9.48;;;;;;;10.20;100.00;-18302.53;5007463;28;20044;-80
2023/04/30 07:19:53;;;;;;;15.20;8.63;;;;;;;10.16;100.00;-18301.56;5024560;28;20033;-81
2023/04/30 07:22:19;;;;;;;17.40;9.18;;;;;;;10.08;100.00;-18299.50;4997488;28;20046;-81
2023/04/30 07:24:44;;;;;;;12.73;9.30;;;;;;;10.26;100.00;-18304.31;5005026;28;20549;-81
2023/04/30 07:27:10;;;;;;;13.77;8.60;;;;;;;10.34;100.00;-18306.38;5019308;28;20121;-81
2023/04/30 07:29:36;;;;;;;15.13;8.75;;;;;;;10.53;100.00;-18311.47;5006619;28;20050;-82
2023/04/30 07:32:01;;;;;;;10.70;8.00;;;;;;;10.64;100.00;-18314.34;5004558;28;20058;-82
2023/04/30 07:34:27;;;;;;;13.57;8.70;;;;;;;10.71;100.00;-18316.28;5010006;28;20121;-81
2023/04/30 07:36:53;;;;;;;13.85;8.20;;;;;;;10.64;100.00;-18314.34;5006817;28;20042;-82
2023/04/30 07:39:18;;;;;;;12.50;8.93;;;;;;;10.65;100.00;-18314.63;5004828;28;20552;-82
2023/04/30 07:41:43;;;;;;;13.73;7.68;;;;;;;10.74;100.00;-18317.09;5012784;28;20091;-82
2023/04/30 07:44:10;;;;;;;13.13;7.60;;;;;;;10.83;100.00;-18319.56;5027524;28;20045;-82
2023/04/30 07:46:35;;;;;;;11.77;7.72;;;;;;;11.14;100.00;-18327.81;5013915;28;20037;-82
2023/04/30 07:49:01;;;;;;;11.38;7.45;;;;;;;11.09;100.00;-18326.44;5010615;28;20038;-81
2023/04/30 07:51:26;;;;;;;10.52;7.25;;;;;;;11.09;100.00;-18326.56;5021644;28;20033;-81
2023/04/30 07:53:52;;;;;;;11.27;7.13;;;;;;;11.05;100.00;-18325.59;5016913;28;20042;-81
2023/04/30 07:56:18;;;;;;;10.02;6.75;;;;;;;11.16;100.00;-18328.34;5007421;28;20061;-81
2023/04/30 07:58:43;;;;;;;15.68;7.05;;;;;;;11.32;100.00;-18332.75;5014288;28;20052;-81
2023/04/30 08:01:08;;;;;;;10.23;6.47;;;;;;;11.32;100.00;-18332.63;5024273;28;20100;-82
2023/04/30 08:03:34;;;;;;;8.80;6.30;;;;;;;11.21;100.00;-18329.72;5013231;28;20057;-82
2023/04/30 08:05:59;;;;;;;12.23;6.60;;;;;;;11.20;100.00;-18329.47;5010840;28;20029;-82
2023/04/30 08:08:27;;;;;;;11.55;6.82;;;;;;;11.38;100.00;-18334.25;5001764;28;20897;-81
2023/04/30 08:10:53;;;;;;;9.23;6.07;;;;;;;11.56;100.00;-18339.06;5005119;28;20100;-82
2023/04/30 08:13:19;;;;;;;13.07;6.22;;;;;;;11.52;100.00;-18338.25;5005672;28;20422;-82
2023/04/30 08:15:45;;;;;;;10.25;6.00;;;;;;;11.53;100.00;-18338.50;5007037;28;20042;-81
2023/04/30 08:18:10;;;;;;;8.48;6.03;;;;;;;11.53;100.00;-18338.38;5010150;28;20409;-82
2023/04/30 08:20:35;;;;;;;10.13;5.28;;;;;;;11.70;100.00;-18342.91;5012886;28;20050;-81
2023/04/30 08:23:01;;;;;;;16.17;6.13;;;;;;;12.01;100.00;-18351.16;5009665;28;20045;-82
2023/04/30 08:25:26;;;;;;;10.75;5.50;;;;;;;12.04;100.00;-18351.97;5004351;28;20757;-82
2023/04/30 08:27:52;;;;;;;13.43;5.88;;;;;;;12.08;100.00;-18353.06;5011030;28;20564;-82
2023/04/30 08:30:17;;;;;;;13.27;5.97;;;;;;;12.12;100.00;-18354.31;5013568;28;20045;-83
2023/04/30 08:32:42;;;;;;;10.98;5.63;;;;;;;12.23;100.00;-18357.03;5012517;28;20038;-82
2023/04/30 08:35:08;;;;;;;8.80;5.05;;;;;;;12.33;100.00;-18359.78;5010645;28;20038;-82
2023/04/30 08:37:34;;;;;;;14.00;5.88;;;;;;;12.45;100.00;-18362.94;5002591;28;20432;-83
2023/04/30 08:39:59;;;;;;;12.00;5.50;;;;;;;12.50;100.00;-18364.31;5004635;28;20034;-83
2023/04/30 08:42:30;;;;;;;8.18;4.28;;;;;;;12.61;100.00;-18367.34;5011157;28;20041;-83
2023/04/30 08:44:56;;;;;;;10.70;4.80;;;;;;;12.79;100.00;-18372.28;5009891;28;20408;-83
2023/04/30 08:47:23;;;;;;;10.55;5.50;;;;;;;12.84;100.00;-18373.63;5008404;28;20134;-83
2023/04/30 08:49:49;;;;;;;12.48;5.43;;;;;;;12.82;100.00;-18372.97;5018073;28;20053;-82
2023/04/30 08:52:14;;;;;;;9.55;5.38;;;;;;;12.86;100.00;-18374.19;5006541;28;20465;-83
2023/04/30 08:54:41;;;;;;;7.30;4.55;;;;;;;12.53;100.00;-18365.28;5009037;28;20064;-82
2023/04/30 08:57:06;;;;;;;7.78;4.63;;;;;;;12.58;100.00;-18366.50;5003781;28;20135;-82
2023/04/30 08:59:32;;;;;;;8.02;4.53;;;;;;;12.59;100.00;-18366.91;5005671;28;20042;-81
2023/04/30 09:01:59;;;;;;;8.98;4.60;;;;;;;12.72;100.00;-18370.34;5003152;28;20045;-82
2023/04/30 09:04:25;;;;;;;8.75;4.50;;;;;;;12.77;100.00;-18371.72;5003942;28;20041;-82
2023/04/30 09:06:57;;;;;;;11.35;4.75;;;;;;;12.99;100.00;-18377.63;5016356;28;20517;-81
2023/04/30 09:09:27;;;;;;;8.93;4.47;;;;;;;13.34;100.00;-18386.94;5001890;28;20593;-83
2023/04/30 09:12:09;;;;;;;10.32;4.40;;;;;;;13.29;100.00;-18385.72;5012188;28;20076;-81
2023/04/30 09:14:39;;;;;;;7.15;3.90;;;;;;;13.59;100.00;-18393.53;5008451;28;20046;-81
2023/04/30 09:17:05;;;;;;;9.57;4.40;;;;;;;13.59;100.00;-18393.53;5008489;28;20095;-81
2023/04/30 09:19:30;;;;;;;6.75;4.30;;;;;;;13.53;100.00;-18392.00;5007441;28;20093;-81
2023/04/30 09:21:56;;;;;;;7.10;3.97;;;;;;;13.61;100.00;-18394.22;5009203;28;20525;-81
2023/04/30 09:24:22;;;;;;;7.07;4.25;;;;;;;13.54;100.00;-18392.28;5003961;28;20141;-83
2023/04/30 09:26:50;;;;;;;10.50;4.18;;;;;;;13.64;100.00;-18394.91;5004880;28;20053;-83
2023/04/30 09:29:15;;;;;;;9.43;4.03;;;;;;;13.73;100.00;-18397.34;5015131;28;20041;-83
2023/04/30 09:31:46;;;;;;;11.98;4.80;;;;;;;13.89;100.00;-18401.59;4998848;28;20042;-81
2023/04/30 09:34:12;;;;;;;8.90;3.65;;;;;;;13.93;100.00;-18402.69;5007064;28;20076;-84
2023/04/30 09:36:53;;;;;;;9.02;4.40;;;;;;;14.21;100.00;-18410.22;5003654;28;20042;-82
2023/04/30 09:39:19;;;;;;;8.48;3.95;;;;;;;14.10;100.00;-18407.22;4997146;28;20065;-81
2023/04/30 09:41:45;;;;;;;10.25;4.03;;;;;;;14.29;100.00;-18412.28;5007286;28;20044;-83
2023/04/30 09:44:29;;;;;;;6.38;3.42;;;;;;;14.25;100.00;-18411.19;4999501;28;20480;-83
2023/04/30 09:46:56;;;;;;;8.13;4.03;;;;;;;14.36;100.00;-18414.19;4999967;28;20045;-85
2023/04/30 09:49:21;;;;;;;9.73;3.35;;;;;;;14.39;100.00;-18415.16;5008967;28;20037;-83
2023/04/30 09:52:00;;;;;;;7.90;3.42;;;;;;;14.77;100.00;-18425.16;5011226;28;20539;-83
2023/04/30 09:54:28;;;;;;;5.43;3.45;;;;;;;14.42;100.00;-18415.84;5006754;28;20038;-83
2023/04/30 09:56:56;;;;;;;7.40;3.80;;;;;;;14.30;100.00;-18412.69;4992401;28;20042;-81
2023/04/30 09:59:29;;;;;;;7.53;3.80;;;;;;;14.40;100.00;-18415.44;5010795;28;20042;-85
2023/04/30 10:01:57;;;;;;;7.00;3.58;;;;;;;14.44;100.00;-18416.38;4992018;28;20058;-82
2023/04/30 10:04:23;;;;;;;7.10;4.03;;;;;;;14.22;100.00;-18410.50;4994736;28;20046;-84
2023/04/30 10:06:52;;;;;;;8.80;3.83;;;;;;;14.71;100.00;-18423.50;4997698;28;20037;-82
2023/04/30 10:09:18;;;;;;;7.82;3.40;;;;;;;14.99;100.00;-18431.19;4993479;28;20129;-83
2023/04/30 10:11:45;;;;;;;9.15;3.60;;;;;;;15.22;100.00;-18437.19;5001452;28;20568;-82
2023/04/30 10:14:12;;;;;;;6.25;3.40;;;;;;;15.29;100.00;-18439.25;5001407;28;20042;-82
2023/04/30 10:16:57;;;;;;;8.57;3.38;;;;;;;15.22;100.00;-18437.19;5006796;28;20045;-83
2023/04/30 10:19:25;;;;;;;6.28;3.53;;;;;;;15.35;100.00;-18440.75;4998639;28;20104;-84
2023/04/30 10:21:51;;;;;;;9.25;4.03;;;;;;;15.31;100.00;-18439.66;5006018;28;20118;-82
2023/04/30 10:24:18;;;;;;;4.95;3.67;;;;;;;15.22;100.00;-18437.19;5004120;28;20064;-85
2023/04/30 10:26:46;;;;;;;7.63;4.38;;;;;;;15.12;100.00;-18434.72;5001051;28;20084;-84
2023/04/30 10:29:15;;;;;;;5.45;3.88;;;;;;;15.10;100.00;-18434.19;5018638;23;20612;-81
2023/04/30 10:31:47;;;;;;;8.38;3.90;;;;;;;15.00;100.00;-18431.44;5003098;28;20046;-80
2023/04/30 10:34:17;;;;;;;5.40;3.28;;;;;;;14.96;100.00;-18430.34;5001996;28;20050;-81
2023/04/30 10:36:47;;;;;;;5.40;3.67;;;;;;;15.08;100.00;-18433.50;4999176;28;20049;-82
2023/04/30 10:39:14;;;;;;;7.10;3.28;;;;;;;15.17;100.00;-18435.84;4999171;28;20043;-81
2023/04/30 10:41:43;;;;;;;6.78;3.55;;;;;;;15.37;100.00;-18441.16;5001282;28;20133;-83
2023/04/30 10:44:08;;;;;;;7.03;3.35;;;;;;;15.49;100.00;-18444.59;4996799;28;20535;-83
2023/04/30 10:46:35;;;;;;;6.50;3.70;;;;;;;15.36;100.00;-18441.03;5002165;28;20046;-82
2023/04/30 10:49:01;;;;;;;10.25;4.10;;;;;;;15.34;100.00;-18440.63;5005183;28;20061;-82
2023/04/30 10:51:47;;;;;;;5.43;3.20;;;;;;;15.53;100.00;-18445.53;5000332;28;20046;-82
2023/04/30 10:54:24;;;;;;;8.82;3.35;;;;;;;15.56;100.00;-18446.50;5003177;28;20125;-82
2023/04/30 10:56:50;;;;;;;6.05;3.03;;;;;;;15.74;100.00;-18451.16;5003793;28;20046;-81
2023/04/30 10:59:16;;;;;;;5.50;2.90;;;;;;;15.99;100.00;-18458.00;4995788;28;20043;-83
2023/04/30 11:01:56;;;;;;;5.05;2.63;;;;;;;15.94;100.00;-18456.63;5005344;28;20041;-82
2023/04/30 11:04:22;;;;;;;7.20;3.03;;;;;;;15.91;100.00;-18455.66;5000704;28;20041;-82
2023/04/30 11:06:49;;;;;;;5.68;2.97;;;;;;;16.08;100.00;-18460.31;5004939;28;20041;-82
2023/04/30 11:09:15;;;;;;;10.30;3.08;;;;;;;16.20;100.00;-18463.47;5000018;28;20050;-82
2023/04/30 11:11:43;;;;;;;7.75;3.30;;;;;;;16.36;100.00;-18467.81;5004286;28;20852;-82